sensor_id;sensor_type;location;lat;lon;timestamp;P1;durP1;ratioP1;P2;durP2;ratioP2
46006;SDS011;31738;50.188;8.524;2023-02-13T00:00:10;32.17;;;16.58;;
46006;SDS011;31738;50.188;8.524;2023-02-13T00:02:38;31.75;;;16.40;;
46006;SDS011;31738;50.188;8.524;2023-02-13T00:05:04;32.42;;;16.88;;
46006;SDS011;31738;50.188;8.524;2023-02-13T00:07:29;27.55;;;16.05;;
46006;SDS011;31738;50.188;8.524;2023-02-13T00:09:55;29.67;;;16.75;;
46006;SDS011;31738;50.188;8.524;2023-02-13T00:12:20;27.73;;;15.30;;
46006;SDS011;31738;50.188;8.524;2023-02-13T00:14:45;27.27;;;15.52;;
46006;SDS011;31738;50.188;8.524;2023-02-13T00:17:11;32.75;;;16.10;;
46006;SDS011;31738;50.188;8.524;2023-02-13T00:19:36;30.30;;;15.93;;
46006;SDS011;31738;50.188;8.524;2023-02-13T00:22:02;31.77;;;15.85;;
46006;SDS011;31738;50.188;8.524;2023-02-13T00:24:27;27.90;;;14.07;;
46006;SDS011;31738;50.188;8.524;2023-02-13T00:26:53;26.15;;;14.77;;
46006;SDS011;31738;50.188;8.524;2023-02-13T00:29:18;24.77;;;14.05;;
46006;SDS011;31738;50.188;8.524;2023-02-13T00:31:44;28.23;;;14.93;;
46006;SDS011;31738;50.188;8.524;2023-02-13T00:34:09;26.35;;;14.27;;
46006;SDS011;31738;50.188;8.524;2023-02-13T00:36:35;27.27;;;14.85;;
46006;SDS011;31738;50.188;8.524;2023-02-13T00:39:00;26.63;;;14.48;;
46006;SDS011;31738;50.188;8.524;2023-02-13T00:41:26;25.67;;;14.27;;
46006;SDS011;31738;50.188;8.524;2023-02-13T00:43:51;26.25;;;13.55;;
46006;SDS011;31738;50.188;8.524;2023-02-13T00:46:17;27.23;;;13.98;;
46006;SDS011;31738;50.188;8.524;2023-02-13T00:48:42;25.48;;;13.48;;
46006;SDS011;31738;50.188;8.524;2023-02-13T00:51:08;22.40;;;13.07;;
46006;SDS011;31738;50.188;8.524;2023-02-13T00:53:35;23.05;;;12.63;;
46006;SDS011;31738;50.188;8.524;2023-02-13T00:56:01;26.73;;;13.52;;
46006;SDS011;31738;50.188;8.524;2023-02-13T00:58:28;24.42;;;12.63;;
46006;SDS011;31738;50.188;8.524;2023-02-13T01:00:53;26.60;;;13.10;;
46006;SDS011;31738;50.188;8.524;2023-02-13T01:03:19;23.13;;;12.70;;
46006;SDS011;31738;50.188;8.524;2023-02-13T01:05:46;24.20;;;13.63;;
46006;SDS011;31738;50.188;8.524;2023-02-13T01:08:13;20.58;;;11.82;;
46006;SDS011;31738;50.188;8.524;2023-02-13T01:10:39;22.92;;;12.18;;
46006;SDS011;31738;50.188;8.524;2023-02-13T01:13:07;20.67;;;12.48;;
46006;SDS011;31738;50.188;8.524;2023-02-13T01:15:33;22.13;;;12.23;;
46006;SDS011;31738;50.188;8.524;2023-02-13T01:17:59;20.30;;;11.43;;
46006;SDS011;31738;50.188;8.524;2023-02-13T01:20:25;22.08;;;12.43;;
46006;SDS011;31738;50.188;8.524;2023-02-13T01:22:52;21.35;;;12.32;;
46006;SDS011;31738;50.188;8.524;2023-02-13T01:25:18;20.98;;;11.57;;
46006;SDS011;31738;50.188;8.524;2023-02-13T01:27:44;22.65;;;11.43;;
46006;SDS011;31738;50.188;8.524;2023-02-13T01:30:10;22.45;;;13.00;;
46006;SDS011;31738;50.188;8.524;2023-02-13T01:32:38;21.58;;;12.20;;
46006;SDS011;31738;50.188;8.524;2023-02-13T01:35:20;21.83;;;11.82;;
46006;SDS011;31738;50.188;8.524;2023-02-13T01:37:45;19.40;;;11.43;;
46006;SDS011;31738;50.188;8.524;2023-02-13T01:40:12;21.30;;;11.65;;
46006;SDS011;31738;50.188;8.524;2023-02-13T01:42:39;23.05;;;12.93;;
46006;SDS011;31738;50.188;8.524;2023-02-13T01:45:12;21.95;;;11.65;;
46006;SDS011;31738;50.188;8.524;2023-02-13T01:47:53;20.92;;;10.80;;
46006;SDS011;31738;50.188;8.524;2023-02-13T01:50:35;19.17;;;10.63;;
46006;SDS011;31738;50.188;8.524;2023-02-13T01:53:06;19.73;;;11.15;;
46006;SDS011;31738;50.188;8.524;2023-02-13T01:55:59;18.65;;;10.45;;
46006;SDS011;31738;50.188;8.524;2023-02-13T01:58:30;24.00;;;12.25;;
46006;SDS011;31738;50.188;8.524;2023-02-13T02:00:59;23.02;;;12.25;;
46006;SDS011;31738;50.188;8.524;2023-02-13T02:06:59;25.98;;;12.75;;
46006;SDS011;31738;50.188;8.524;2023-02-13T02:09:42;21.35;;;11.63;;
46006;SDS011;31738;50.188;8.524;2023-02-13T02:15:18;21.83;;;12.00;;
46006;SDS011;31738;50.188;8.524;2023-02-13T02:17:44;22.30;;;12.02;;
46006;SDS011;31738;50.188;8.524;2023-02-13T02:37:01;21.60;;;12.50;;
46006;SDS011;31738;50.188;8.524;2023-02-13T02:45:28;23.40;;;12.38;;
46006;SDS011;31738;50.188;8.524;2023-02-13T02:48:21;22.35;;;12.02;;
46006;SDS011;31738;50.188;8.524;2023-02-13T02:56:47;23.63;;;12.32;;
46006;SDS011;31738;50.188;8.524;2023-02-13T02:59:15;23.65;;;12.18;;
46006;SDS011;31738;50.188;8.524;2023-02-13T03:02:03;23.98;;;11.82;;
46006;SDS011;31738;50.188;8.524;2023-02-13T03:04:50;24.98;;;12.23;;
46006;SDS011;31738;50.188;8.524;2023-02-13T03:07:37;24.98;;;12.38;;
46006;SDS011;31738;50.188;8.524;2023-02-13T03:10:05;25.65;;;13.00;;
46006;SDS011;31738;50.188;8.524;2023-02-13T03:13:00;27.25;;;13.35;;
46006;SDS011;31738;50.188;8.524;2023-02-13T03:15:51;25.90;;;12.55;;
46006;SDS011;31738;50.188;8.524;2023-02-13T03:18:38;26.73;;;13.25;;
46006;SDS011;31738;50.188;8.524;2023-02-13T03:24:45;23.92;;;12.27;;
46006;SDS011;31738;50.188;8.524;2023-02-13T03:29:52;26.67;;;12.77;;
46006;SDS011;31738;50.188;8.524;2023-02-13T03:32:41;28.23;;;13.30;;
46006;SDS011;31738;50.188;8.524;2023-02-13T03:35:26;29.38;;;13.18;;
46006;SDS011;31738;50.188;8.524;2023-02-13T03:38:31;27.70;;;12.82;;
46006;SDS011;31738;50.188;8.524;2023-02-13T03:41:23;24.52;;;12.05;;
46006;SDS011;31738;50.188;8.524;2023-02-13T03:48:26;25.05;;;11.18;;
46006;SDS011;31738;50.188;8.524;2023-02-13T03:55:13;26.85;;;12.20;;
46006;SDS011;31738;50.188;8.524;2023-02-13T03:58:07;25.45;;;11.90;;
46006;SDS011;31738;50.188;8.524;2023-02-13T04:00:56;25.30;;;12.13;;
46006;SDS011;31738;50.188;8.524;2023-02-13T04:03:32;27.00;;;12.27;;
46006;SDS011;31738;50.188;8.524;2023-02-13T04:06:15;27.15;;;12.02;;
46006;SDS011;31738;50.188;8.524;2023-02-13T04:08:43;32.38;;;13.75;;
46006;SDS011;31738;50.188;8.524;2023-02-13T04:11:12;28.95;;;12.95;;
46006;SDS011;31738;50.188;8.524;2023-02-13T04:13:56;27.98;;;12.77;;
46006;SDS011;31738;50.188;8.524;2023-02-13T04:16:28;32.00;;;13.68;;
46006;SDS011;31738;50.188;8.524;2023-02-13T04:19:17;29.23;;;13.23;;
46006;SDS011;31738;50.188;8.524;2023-02-13T04:21:44;29.75;;;14.27;;
46006;SDS011;31738;50.188;8.524;2023-02-13T04:24:14;31.30;;;13.80;;
46006;SDS011;31738;50.188;8.524;2023-02-13T04:26:40;33.03;;;13.65;;
46006;SDS011;31738;50.188;8.524;2023-02-13T04:29:08;33.90;;;14.77;;
46006;SDS011;31738;50.188;8.524;2023-02-13T04:31:33;31.73;;;13.75;;
46006;SDS011;31738;50.188;8.524;2023-02-13T04:33:59;31.02;;;13.13;;
46006;SDS011;31738;50.188;8.524;2023-02-13T04:36:25;33.45;;;14.75;;
46006;SDS011;31738;50.188;8.524;2023-02-13T04:38:51;32.60;;;14.35;;
46006;SDS011;31738;50.188;8.524;2023-02-13T04:41:16;33.13;;;14.40;;
46006;SDS011;31738;50.188;8.524;2023-02-13T04:43:42;32.75;;;14.23;;
46006;SDS011;31738;50.188;8.524;2023-02-13T04:46:07;31.15;;;13.57;;
46006;SDS011;31738;50.188;8.524;2023-02-13T04:48:33;34.45;;;13.75;;
46006;SDS011;31738;50.188;8.524;2023-02-13T04:50:58;34.80;;;14.00;;
46006;SDS011;31738;50.188;8.524;2023-02-13T04:53:24;31.08;;;13.88;;
46006;SDS011;31738;50.188;8.524;2023-02-13T04:55:50;32.40;;;14.85;;
46006;SDS011;31738;50.188;8.524;2023-02-13T04:58:16;34.20;;;14.80;;
46006;SDS011;31738;50.188;8.524;2023-02-13T05:00:42;34.40;;;14.68;;
46006;SDS011;31738;50.188;8.524;2023-02-13T05:03:08;35.38;;;14.98;;
46006;SDS011;31738;50.188;8.524;2023-02-13T05:05:35;38.70;;;15.23;;
46006;SDS011;31738;50.188;8.524;2023-02-13T05:08:01;42.50;;;15.45;;
46006;SDS011;31738;50.188;8.524;2023-02-13T05:10:27;34.88;;;15.60;;
46006;SDS011;31738;50.188;8.524;2023-02-13T05:12:53;32.97;;;13.93;;
46006;SDS011;31738;50.188;8.524;2023-02-13T05:15:19;38.65;;;15.02;;
46006;SDS011;31738;50.188;8.524;2023-02-13T05:17:45;37.83;;;15.00;;
46006;SDS011;31738;50.188;8.524;2023-02-13T05:20:11;38.13;;;14.57;;
46006;SDS011;31738;50.188;8.524;2023-02-13T05:22:42;32.72;;;13.35;;
46006;SDS011;31738;50.188;8.524;2023-02-13T05:25:30;33.97;;;14.20;;
46006;SDS011;31738;50.188;8.524;2023-02-13T05:27:57;33.25;;;12.98;;
46006;SDS011;31738;50.188;8.524;2023-02-13T05:30:22;30.45;;;12.50;;
46006;SDS011;31738;50.188;8.524;2023-02-13T05:32:48;34.85;;;12.88;;
46006;SDS011;31738;50.188;8.524;2023-02-13T05:35:16;29.60;;;12.00;;
46006;SDS011;31738;50.188;8.524;2023-02-13T05:37:45;33.97;;;11.20;;
46006;SDS011;31738;50.188;8.524;2023-02-13T05:40:11;27.52;;;11.27;;
46006;SDS011;31738;50.188;8.524;2023-02-13T05:42:37;23.75;;;10.32;;
46006;SDS011;31738;50.188;8.524;2023-02-13T05:45:04;23.27;;;10.57;;
46006;SDS011;31738;50.188;8.524;2023-02-13T05:47:29;27.20;;;11.00;;
46006;SDS011;31738;50.188;8.524;2023-02-13T05:49:55;35.78;;;12.75;;
46006;SDS011;31738;50.188;8.524;2023-02-13T05:52:20;34.72;;;13.70;;
46006;SDS011;31738;50.188;8.524;2023-02-13T05:54:46;38.05;;;13.00;;
46006;SDS011;31738;50.188;8.524;2023-02-13T05:57:11;38.33;;;13.95;;
46006;SDS011;31738;50.188;8.524;2023-02-13T05:59:37;39.97;;;17.02;;
46006;SDS011;31738;50.188;8.524;2023-02-13T06:02:02;40.38;;;15.73;;
46006;SDS011;31738;50.188;8.524;2023-02-13T06:04:28;42.67;;;16.42;;
46006;SDS011;31738;50.188;8.524;2023-02-13T06:06:53;42.45;;;16.27;;
46006;SDS011;31738;50.188;8.524;2023-02-13T06:09:19;48.00;;;17.35;;
46006;SDS011;31738;50.188;8.524;2023-02-13T06:11:44;37.95;;;15.63;;
46006;SDS011;31738;50.188;8.524;2023-02-13T06:14:10;38.78;;;15.52;;
46006;SDS011;31738;50.188;8.524;2023-02-13T06:16:35;37.83;;;14.73;;
46006;SDS011;31738;50.188;8.524;2023-02-13T06:19:01;30.77;;;14.10;;
46006;SDS011;31738;50.188;8.524;2023-02-13T06:21:27;31.23;;;13.55;;
46006;SDS011;31738;50.188;8.524;2023-02-13T06:23:52;38.10;;;14.27;;
46006;SDS011;31738;50.188;8.524;2023-02-13T06:26:18;33.42;;;12.68;;
46006;SDS011;31738;50.188;8.524;2023-02-13T06:28:43;38.00;;;14.00;;
46006;SDS011;31738;50.188;8.524;2023-02-13T06:31:09;29.17;;;13.05;;
46006;SDS011;31738;50.188;8.524;2023-02-13T06:33:34;34.47;;;13.43;;
46006;SDS011;31738;50.188;8.524;2023-02-13T06:35:59;28.02;;;12.15;;
46006;SDS011;31738;50.188;8.524;2023-02-13T06:38:25;37.65;;;15.75;;
46006;SDS011;31738;50.188;8.524;2023-02-13T06:40:50;37.38;;;18.40;;
46006;SDS011;31738;50.188;8.524;2023-02-13T06:43:16;33.63;;;14.20;;
46006;SDS011;31738;50.188;8.524;2023-02-13T06:45:42;33.55;;;13.68;;
46006;SDS011;31738;50.188;8.524;2023-02-13T06:48:08;29.73;;;13.95;;
46006;SDS011;31738;50.188;8.524;2023-02-13T06:50:33;32.25;;;15.60;;
46006;SDS011;31738;50.188;8.524;2023-02-13T06:52:59;34.95;;;17.13;;
46006;SDS011;31738;50.188;8.524;2023-02-13T06:55:25;36.00;;;17.85;;
46006;SDS011;31738;50.188;8.524;2023-02-13T06:57:51;34.13;;;14.10;;
46006;SDS011;31738;50.188;8.524;2023-02-13T07:00:17;32.90;;;12.85;;
46006;SDS011;31738;50.188;8.524;2023-02-13T07:02:43;30.92;;;13.07;;
46006;SDS011;31738;50.188;8.524;2023-02-13T07:05:10;32.08;;;13.60;;
46006;SDS011;31738;50.188;8.524;2023-02-13T07:07:36;38.72;;;13.73;;
46006;SDS011;31738;50.188;8.524;2023-02-13T07:10:03;32.47;;;14.68;;
46006;SDS011;31738;50.188;8.524;2023-02-13T07:12:34;29.45;;;12.63;;
46006;SDS011;31738;50.188;8.524;2023-02-13T07:15:01;28.27;;;12.32;;
46006;SDS011;31738;50.188;8.524;2023-02-13T07:17:28;30.15;;;12.82;;
46006;SDS011;31738;50.188;8.524;2023-02-13T07:19:53;30.63;;;12.73;;
46006;SDS011;31738;50.188;8.524;2023-02-13T07:22:19;30.58;;;11.85;;
46006;SDS011;31738;50.188;8.524;2023-02-13T07:24:44;32.55;;;12.73;;
46006;SDS011;31738;50.188;8.524;2023-02-13T07:27:10;27.80;;;11.98;;
46006;SDS011;31738;50.188;8.524;2023-02-13T07:29:35;33.10;;;12.73;;
46006;SDS011;31738;50.188;8.524;2023-02-13T07:32:00;33.13;;;13.05;;
46006;SDS011;31738;50.188;8.524;2023-02-13T07:34:26;32.20;;;13.35;;
46006;SDS011;31738;50.188;8.524;2023-02-13T07:36:51;39.97;;;14.07;;
46006;SDS011;31738;50.188;8.524;2023-02-13T07:39:17;35.70;;;14.48;;
46006;SDS011;31738;50.188;8.524;2023-02-13T07:41:43;38.30;;;13.98;;
46006;SDS011;31738;50.188;8.524;2023-02-13T07:44:09;38.03;;;15.30;;
46006;SDS011;31738;50.188;8.524;2023-02-13T07:46:34;40.50;;;15.85;;
46006;SDS011;31738;50.188;8.524;2023-02-13T07:49:00;35.20;;;14.43;;
46006;SDS011;31738;50.188;8.524;2023-02-13T07:51:25;32.58;;;13.38;;
46006;SDS011;31738;50.188;8.524;2023-02-13T07:53:53;32.10;;;12.95;;
46006;SDS011;31738;50.188;8.524;2023-02-13T07:56:19;27.98;;;12.65;;
46006;SDS011;31738;50.188;8.524;2023-02-13T07:58:45;33.67;;;12.57;;
46006;SDS011;31738;50.188;8.524;2023-02-13T08:01:11;31.33;;;12.73;;
46006;SDS011;31738;50.188;8.524;2023-02-13T08:03:39;32.53;;;13.57;;
46006;SDS011;31738;50.188;8.524;2023-02-13T08:06:04;32.05;;;13.95;;
46006;SDS011;31738;50.188;8.524;2023-02-13T08:08:31;34.60;;;13.52;;
46006;SDS011;31738;50.188;8.524;2023-02-13T08:10:56;33.65;;;14.65;;
46006;SDS011;31738;50.188;8.524;2023-02-13T08:13:48;35.50;;;14.45;;
46006;SDS011;31738;50.188;8.524;2023-02-13T08:16:13;40.28;;;15.52;;
46006;SDS011;31738;50.188;8.524;2023-02-13T08:18:39;36.15;;;15.57;;
46006;SDS011;31738;50.188;8.524;2023-02-13T08:21:05;34.35;;;14.27;;
46006;SDS011;31738;50.188;8.524;2023-02-13T08:23:30;32.22;;;14.93;;
46006;SDS011;31738;50.188;8.524;2023-02-13T08:25:59;34.97;;;14.73;;
46006;SDS011;31738;50.188;8.524;2023-02-13T08:28:26;31.75;;;14.15;;
46006;SDS011;31738;50.188;8.524;2023-02-13T08:30:52;34.88;;;15.32;;
46006;SDS011;31738;50.188;8.524;2023-02-13T08:33:18;31.88;;;14.50;;
46006;SDS011;31738;50.188;8.524;2023-02-13T08:35:43;32.88;;;14.80;;
46006;SDS011;31738;50.188;8.524;2023-02-13T08:38:09;36.55;;;15.88;;
46006;SDS011;31738;50.188;8.524;2023-02-13T08:40:34;35.40;;;15.80;;
46006;SDS011;31738;50.188;8.524;2023-02-13T08:43:03;36.38;;;16.35;;
46006;SDS011;31738;50.188;8.524;2023-02-13T08:45:30;32.95;;;15.65;;
46006;SDS011;31738;50.188;8.524;2023-02-13T08:47:57;34.53;;;16.70;;
46006;SDS011;31738;50.188;8.524;2023-02-13T08:50:23;34.25;;;15.95;;
46006;SDS011;31738;50.188;8.524;2023-02-13T08:52:49;30.80;;;15.02;;
46006;SDS011;31738;50.188;8.524;2023-02-13T08:55:14;35.15;;;16.00;;
46006;SDS011;31738;50.188;8.524;2023-02-13T08:57:40;36.83;;;17.27;;
46006;SDS011;31738;50.188;8.524;2023-02-13T09:00:06;35.72;;;16.33;;
46006;SDS011;31738;50.188;8.524;2023-02-13T09:02:31;34.47;;;16.08;;
46006;SDS011;31738;50.188;8.524;2023-02-13T09:04:57;30.05;;;16.00;;
46006;SDS011;31738;50.188;8.524;2023-02-13T09:07:22;27.40;;;14.30;;
46006;SDS011;31738;50.188;8.524;2023-02-13T09:09:48;30.02;;;14.13;;
46006;SDS011;31738;50.188;8.524;2023-02-13T09:12:13;25.55;;;13.43;;
46006;SDS011;31738;50.188;8.524;2023-02-13T09:14:39;20.95;;;12.07;;
46006;SDS011;31738;50.188;8.524;2023-02-13T09:17:05;21.30;;;11.15;;
46006;SDS011;31738;50.188;8.524;2023-02-13T09:19:30;22.02;;;11.45;;
46006;SDS011;31738;50.188;8.524;2023-02-13T09:21:55;20.38;;;11.80;;
46006;SDS011;31738;50.188;8.524;2023-02-13T09:24:21;23.23;;;11.98;;
46006;SDS011;31738;50.188;8.524;2023-02-13T09:26:46;22.25;;;11.90;;
46006;SDS011;31738;50.188;8.524;2023-02-13T09:29:12;23.52;;;12.30;;
46006;SDS011;31738;50.188;8.524;2023-02-13T09:31:37;23.80;;;12.75;;
46006;SDS011;31738;50.188;8.524;2023-02-13T09:34:03;24.05;;;12.35;;
46006;SDS011;31738;50.188;8.524;2023-02-13T09:36:28;21.83;;;11.10;;
46006;SDS011;31738;50.188;8.524;2023-02-13T09:38:54;19.63;;;11.52;;
46006;SDS011;31738;50.188;8.524;2023-02-13T09:41:25;22.17;;;11.95;;
46006;SDS011;31738;50.188;8.524;2023-02-13T09:44:13;25.70;;;13.48;;
46006;SDS011;31738;50.188;8.524;2023-02-13T09:47:11;23.58;;;12.82;;
46006;SDS011;31738;50.188;8.524;2023-02-13T09:49:49;21.13;;;10.95;;
46006;SDS011;31738;50.188;8.524;2023-02-13T09:52:21;21.95;;;11.82;;
46006;SDS011;31738;50.188;8.524;2023-02-13T09:54:47;19.25;;;11.23;;
46006;SDS011;31738;50.188;8.524;2023-02-13T09:57:17;22.25;;;11.77;;
46006;SDS011;31738;50.188;8.524;2023-02-13T10:16:21;20.10;;;11.98;;
46006;SDS011;31738;50.188;8.524;2023-02-13T10:18:56;19.75;;;11.02;;
46006;SDS011;31738;50.188;8.524;2023-02-13T10:21:35;18.08;;;10.95;;
46006;SDS011;31738;50.188;8.524;2023-02-13T10:24:11;23.92;;;13.73;;
46006;SDS011;31738;50.188;8.524;2023-02-13T10:26:41;17.45;;;10.73;;
46006;SDS011;31738;50.188;8.524;2023-02-13T10:32:07;21.30;;;11.47;;
46006;SDS011;31738;50.188;8.524;2023-02-13T10:34:41;19.98;;;11.32;;
46006;SDS011;31738;50.188;8.524;2023-02-13T10:37:13;21.20;;;11.57;;
46006;SDS011;31738;50.188;8.524;2023-02-13T10:39:43;24.17;;;12.82;;
46006;SDS011;31738;50.188;8.524;2023-02-13T10:42:17;27.98;;;15.25;;
46006;SDS011;31738;50.188;8.524;2023-02-13T10:48:21;28.85;;;14.75;;
46006;SDS011;31738;50.188;8.524;2023-02-13T10:51:18;25.60;;;14.95;;
46006;SDS011;31738;50.188;8.524;2023-02-13T10:56:35;25.85;;;14.50;;
46006;SDS011;31738;50.188;8.524;2023-02-13T10:59:30;28.38;;;15.23;;
46006;SDS011;31738;50.188;8.524;2023-02-13T11:02:34;28.52;;;15.27;;
46006;SDS011;31738;50.188;8.524;2023-02-13T11:07:38;31.98;;;16.90;;
46006;SDS011;31738;50.188;8.524;2023-02-13T11:10:04;25.80;;;14.30;;
46006;SDS011;31738;50.188;8.524;2023-02-13T11:12:40;23.83;;;13.88;;
46006;SDS011;31738;50.188;8.524;2023-02-13T11:19:45;25.85;;;13.30;;
46006;SDS011;31738;50.188;8.524;2023-02-13T11:22:25;25.35;;;12.98;;
46006;SDS011;31738;50.188;8.524;2023-02-13T11:25:34;26.42;;;13.07;;
46006;SDS011;31738;50.188;8.524;2023-02-13T11:28:07;26.27;;;13.20;;
46006;SDS011;31738;50.188;8.524;2023-02-13T11:30:40;22.63;;;12.85;;
46006;SDS011;31738;50.188;8.524;2023-02-13T11:33:17;21.50;;;12.80;;
46006;SDS011;31738;50.188;8.524;2023-02-13T11:35:47;22.13;;;12.43;;
46006;SDS011;31738;50.188;8.524;2023-02-13T11:40:52;23.63;;;11.82;;
46006;SDS011;31738;50.188;8.524;2023-02-13T11:43:30;19.95;;;11.35;;
46006;SDS011;31738;50.188;8.524;2023-02-13T11:51:47;17.65;;;10.18;;
46006;SDS011;31738;50.188;8.524;2023-02-13T11:54:46;21.35;;;11.75;;
46006;SDS011;31738;50.188;8.524;2023-02-13T11:57:23;16.73;;;10.23;;
46006;SDS011;31738;50.188;8.524;2023-02-13T11:59:57;18.20;;;10.18;;
46006;SDS011;31738;50.188;8.524;2023-02-13T12:02:44;17.35;;;9.68;;
46006;SDS011;31738;50.188;8.524;2023-02-13T12:09:23;18.90;;;10.38;;
46006;SDS011;31738;50.188;8.524;2023-02-13T12:11:50;20.55;;;11.00;;
46006;SDS011;31738;50.188;8.524;2023-02-13T12:14:22;19.77;;;10.20;;
46006;SDS011;31738;50.188;8.524;2023-02-13T12:26:39;16.20;;;9.15;;
46006;SDS011;31738;50.188;8.524;2023-02-13T12:29:33;16.05;;;9.25;;
46006;SDS011;31738;50.188;8.524;2023-02-13T12:32:18;16.20;;;9.80;;
46006;SDS011;31738;50.188;8.524;2023-02-13T12:35:01;18.13;;;9.73;;
46006;SDS011;31738;50.188;8.524;2023-02-13T12:40:57;16.13;;;8.95;;
46006;SDS011;31738;50.188;8.524;2023-02-13T12:44:17;17.15;;;8.65;;
46006;SDS011;31738;50.188;8.524;2023-02-13T12:53:16;14.90;;;8.60;;
46006;SDS011;31738;50.188;8.524;2023-02-13T12:59:23;14.02;;;8.35;;
46006;SDS011;31738;50.188;8.524;2023-02-13T13:02:06;17.08;;;9.30;;
46006;SDS011;31738;50.188;8.524;2023-02-13T13:13:52;20.67;;;9.85;;
46006;SDS011;31738;50.188;8.524;2023-02-13T13:19:12;17.23;;;9.48;;
46006;SDS011;31738;50.188;8.524;2023-02-13T13:30:17;13.57;;;8.38;;
46006;SDS011;31738;50.188;8.524;2023-02-13T13:33:26;11.88;;;6.20;;
46006;SDS011;31738;50.188;8.524;2023-02-13T13:35:57;11.65;;;6.43;;
46006;SDS011;31738;50.188;8.524;2023-02-13T13:44:45;12.70;;;8.15;;
46006;SDS011;31738;50.188;8.524;2023-02-13T13:47:39;12.82;;;8.05;;
46006;SDS011;31738;50.188;8.524;2023-02-13T13:50:05;13.80;;;8.30;;
46006;SDS011;31738;50.188;8.524;2023-02-13T13:53:32;14.52;;;8.95;;
46006;SDS011;31738;50.188;8.524;2023-02-13T13:58:34;14.30;;;8.50;;
46006;SDS011;31738;50.188;8.524;2023-02-13T14:01:15;15.88;;;9.32;;
46006;SDS011;31738;50.188;8.524;2023-02-13T14:03:47;16.45;;;9.60;;
46006;SDS011;31738;50.188;8.524;2023-02-13T14:06:28;15.32;;;8.45;;
46006;SDS011;31738;50.188;8.524;2023-02-13T14:11:51;13.93;;;9.00;;
46006;SDS011;31738;50.188;8.524;2023-02-13T14:16:53;18.23;;;9.80;;
46006;SDS011;31738;50.188;8.524;2023-02-13T14:21:53;15.95;;;9.65;;
46006;SDS011;31738;50.188;8.524;2023-02-13T14:24:19;15.55;;;8.95;;
46006;SDS011;31738;50.188;8.524;2023-02-13T14:26:52;19.92;;;8.93;;
46006;SDS011;31738;50.188;8.524;2023-02-13T14:29:27;13.63;;;8.75;;
46006;SDS011;31738;50.188;8.524;2023-02-13T14:31:59;14.02;;;8.18;;
46006;SDS011;31738;50.188;8.524;2023-02-13T14:34:30;15.48;;;8.73;;
46006;SDS011;31738;50.188;8.524;2023-02-13T14:37:04;14.63;;;8.05;;
46006;SDS011;31738;50.188;8.524;2023-02-13T14:40:08;12.05;;;7.70;;
46006;SDS011;31738;50.188;8.524;2023-02-13T14:42:36;16.25;;;8.00;;
46006;SDS011;31738;50.188;8.524;2023-02-13T14:45:03;13.60;;;7.55;;
46006;SDS011;31738;50.188;8.524;2023-02-13T14:47:57;12.48;;;7.80;;
46006;SDS011;31738;50.188;8.524;2023-02-13T14:50:29;16.23;;;7.53;;
46006;SDS011;31738;50.188;8.524;2023-02-13T14:53:08;11.05;;;6.93;;
46006;SDS011;31738;50.188;8.524;2023-02-13T14:55:57;12.23;;;7.65;;
46006;SDS011;31738;50.188;8.524;2023-02-13T14:58:32;12.13;;;7.55;;
46006;SDS011;31738;50.188;8.524;2023-02-13T15:01:17;13.18;;;6.88;;
46006;SDS011;31738;50.188;8.524;2023-02-13T15:03:53;11.15;;;6.53;;
46006;SDS011;31738;50.188;8.524;2023-02-13T15:06:31;12.35;;;5.93;;
46006;SDS011;31738;50.188;8.524;2023-02-13T15:09:03;10.27;;;5.30;;
46006;SDS011;31738;50.188;8.524;2023-02-13T15:11:39;11.13;;;5.40;;
46006;SDS011;31738;50.188;8.524;2023-02-13T15:14:23;10.40;;;5.20;;
46006;SDS011;31738;50.188;8.524;2023-02-13T15:19:37;9.05;;;4.63;;
46006;SDS011;31738;50.188;8.524;2023-02-13T15:24:51;8.77;;;5.15;;
46006;SDS011;31738;50.188;8.524;2023-02-13T15:27:18;8.30;;;4.97;;
46006;SDS011;31738;50.188;8.524;2023-02-13T15:35:43;8.25;;;4.57;;
46006;SDS011;31738;50.188;8.524;2023-02-13T15:41:59;8.88;;;4.90;;
46006;SDS011;31738;50.188;8.524;2023-02-13T15:44:28;5.80;;;3.90;;
46006;SDS011;31738;50.188;8.524;2023-02-13T15:47:00;8.50;;;4.40;;
46006;SDS011;31738;50.188;8.524;2023-02-13T15:49:31;9.77;;;4.55;;
46006;SDS011;31738;50.188;8.524;2023-02-13T15:52:14;8.90;;;4.05;;
46006;SDS011;31738;50.188;8.524;2023-02-13T15:54:49;8.35;;;4.55;;
46006;SDS011;31738;50.188;8.524;2023-02-13T15:57:19;10.23;;;4.85;;
46006;SDS011;31738;50.188;8.524;2023-02-13T15:59:45;8.50;;;4.80;;
46006;SDS011;31738;50.188;8.524;2023-02-13T16:02:17;7.70;;;4.55;;
46006;SDS011;31738;50.188;8.524;2023-02-13T16:04:45;7.10;;;4.05;;
46006;SDS011;31738;50.188;8.524;2023-02-13T16:07:13;10.25;;;4.22;;
46006;SDS011;31738;50.188;8.524;2023-02-13T16:09:39;7.82;;;4.65;;
46006;SDS011;31738;50.188;8.524;2023-02-13T16:12:06;8.82;;;4.30;;
46006;SDS011;31738;50.188;8.524;2023-02-13T16:14:46;8.90;;;4.22;;
46006;SDS011;31738;50.188;8.524;2023-02-13T16:20:05;8.35;;;4.03;;
46006;SDS011;31738;50.188;8.524;2023-02-13T16:22:39;8.93;;;4.32;;
46006;SDS011;31738;50.188;8.524;2023-02-13T16:25:31;7.10;;;4.18;;
46006;SDS011;31738;50.188;8.524;2023-02-13T16:27:58;9.57;;;4.13;;
46006;SDS011;31738;50.188;8.524;2023-02-13T16:34:43;7.93;;;4.07;;
46006;SDS011;31738;50.188;8.524;2023-02-13T16:39:54;12.27;;;3.30;;
46006;SDS011;31738;50.188;8.524;2023-02-13T16:42:19;7.18;;;2.90;;
46006;SDS011;31738;50.188;8.524;2023-02-13T16:44:45;4.30;;;2.97;;
46006;SDS011;31738;50.188;8.524;2023-02-13T16:47:20;6.82;;;3.20;;
46006;SDS011;31738;50.188;8.524;2023-02-13T16:49:55;6.30;;;2.97;;
46006;SDS011;31738;50.188;8.524;2023-02-13T16:52:22;5.13;;;2.83;;
46006;SDS011;31738;50.188;8.524;2023-02-13T16:55:00;5.45;;;2.60;;
46006;SDS011;31738;50.188;8.524;2023-02-13T16:57:31;6.13;;;2.92;;
46006;SDS011;31738;50.188;8.524;2023-02-13T17:02:33;7.47;;;3.35;;
46006;SDS011;31738;50.188;8.524;2023-02-13T17:05:13;5.75;;;2.83;;
46006;SDS011;31738;50.188;8.524;2023-02-13T17:07:54;7.00;;;3.00;;
46006;SDS011;31738;50.188;8.524;2023-02-13T17:10:26;5.53;;;2.85;;
46006;SDS011;31738;50.188;8.524;2023-02-13T17:12:56;4.28;;;2.60;;
46006;SDS011;31738;50.188;8.524;2023-02-13T17:15:27;6.22;;;2.90;;
46006;SDS011;31738;50.188;8.524;2023-02-13T17:17:54;6.03;;;2.90;;
46006;SDS011;31738;50.188;8.524;2023-02-13T17:20:23;8.30;;;2.90;;
46006;SDS011;31738;50.188;8.524;2023-02-13T17:22:54;6.15;;;2.75;;
46006;SDS011;31738;50.188;8.524;2023-02-13T17:25:23;7.45;;;3.25;;
46006;SDS011;31738;50.188;8.524;2023-02-13T17:27:55;4.70;;;2.90;;
46006;SDS011;31738;50.188;8.524;2023-02-13T17:30:27;5.13;;;3.08;;
46006;SDS011;31738;50.188;8.524;2023-02-13T17:32:56;5.05;;;3.10;;
46006;SDS011;31738;50.188;8.524;2023-02-13T17:35:23;4.88;;;2.70;;
46006;SDS011;31738;50.188;8.524;2023-02-13T17:37:49;5.95;;;3.03;;
46006;SDS011;31738;50.188;8.524;2023-02-13T17:40:18;7.35;;;3.30;;
46006;SDS011;31738;50.188;8.524;2023-02-13T17:42:46;5.53;;;3.33;;
46006;SDS011;31738;50.188;8.524;2023-02-13T17:45:15;3.92;;;2.83;;
46006;SDS011;31738;50.188;8.524;2023-02-13T17:47:41;5.22;;;3.08;;
46006;SDS011;31738;50.188;8.524;2023-02-13T17:50:07;9.98;;;4.05;;
46006;SDS011;31738;50.188;8.524;2023-02-13T17:52:33;8.00;;;3.47;;